Create Custom Reports and Graphics: Custom Report

Upper Lake

Current Conditions

5/17/22 8:30 PM (-07:00)
Updated Every 15 Minutes
Temp 66.9 °F   6.3
RH 47 %   15
Dew Pt 45.8 °F   1.6
Wet Bulb 55.0 °F   1.3
Wind Dir WNW | 283 °
Wind Spd 7.2 mph   1.8
Wind Gust 13.3 mph   1.0
BatVolt 12.7 V   0.0
Monthly Rain 0.76 In
Seasonal Rainfall 25.13 In

Today & Yesterday

Midnight to Midnight

5/17/22 8:30 PM (-07:00)
Updated Every 15 Minutes
Daily Max Temp 79.4 °F   6.5
Time of Max Temp 1520
Daily Min Temp 40.3 °F   1.1
Time of Min Temp 0559
Daily Max Wind 24.9 mph   0.6
Time of Max Wind 1734
Max Wind Dir NNW | 329 °
Daily Rain 0.00 In
Daily Leaf Wet Hrs 2.7 hrs   2.7
Yest MaxT 72.9 °F
Yest MinT 41.5 °F
Yest MaxGst 24.3 mph
Yest Rain 0.00 In
Leaf Wet Hrs Yest 0.0 Hours

Last 30 Days

Upper Lake

Daily Data | America/Los_Angeles
as of 5/17/22 8:40 PM PDT
Date Daily Max Temp (°F) Time of Max Temp Daily Min Temp (°F) Time of Min Temp Daily Rain (In) Monthly Rain (In) Seasonal Rainfall (In) Wind Spd (mph) Daily Max Wind (mph) Time of Max Wind Max Wind Dir (°) Dew Pt (°F) Max RH (%) Min RH (%) Hrs <= 32F (hrs) Hrs <= 28F (hrs) Daily Leaf Wet Hrs (hrs) Degree Hrs (hrs) Hrs 70-85F (hrs) Hrs > 95F (hrs) Powdery Mildew Stress (pts) Storm Total (In) Daily Max Rain Intensity (In/Hr) Time of Max Rain Intensity Max 1 Min Rain (In) Max 1 Min Rain Time Max 15 Min Rain (In) Max 15 Min Precip Time Max 60 Min Rain (In) Max 60 Min Rain Time MinBV Day (V)
5/16/22 72.9 1602 41.5 0628 0.00 0.76 25.13 7.8 24.3 0215 NW | 324 46.9 98 45 0.0 0.0 0.0 35.0 4.37 0.00 0 - - - - - - - - - 12.4
5/15/22 75.1 1541 47.1 0639 0.00 0.76 25.13 7.1 25.6 1053 WNW | 285 50.2 99 45 0.0 0.0 2.6 61.4 5.47 0.00 10 - - - - - - - - - 12.3
5/14/22 81.5 1555 43.4 0622 0.00 0.76 25.13 4.2 19.0 1709 WNW | 303 49.3 98 26 0.0 0.0 3.6 119.3 9.71 0.00 20 - - - - - - - - - 12.4
5/13/22 70.7 1605 37.6 0550 0.00 0.76 25.13 5.5 21.6 1545 W | 279 47.1 98 48 0.0 0.0 1.2 27.5 0.56 0.00 0 - - - - - - - - - 12.3
5/12/22 62.1 1423 35.6 0548 0.00 0.76 25.13 5.3 18.8 1447 NW | 309 38.8 97 37 0.0 0.0 0.0 0.0 0.00 0.00 0 - - - - - - - - - 12.3
5/11/22 61.8 1522 31.3 0608 0.00 0.76 25.13 5.5 26.3 1712 NW | 312 36.8 98 37 1.1 0.0 2.6 0.0 0.00 0.00 0 - - - - - - - - - 12.3
5/10/22 50.8 1248 30.6 0536 0.63 0.76 25.13 4.0 24.6 1421 W | 272 35.4 99 46 1.6 0.0 13.1 0.0 0.00 0.00 0 0.75 0.34 1551 0.01 0701 0.06 1550 0.15 1550 12.3
5/9/22 53.8 1335 37.4 0056 0.04 0.13 24.50 5.7 25.4 1346 NW | 313 34.0 89 29 0.0 0.0 1.0 0.0 0.00 0.00 0 0.12 0.42 1600 0.01 0403 0.03 1609 0.03 1609 12.3
5/8/22 50.8 1247 33.7 0551 0.08 0.09 24.46 5.7 30.7 1253 NW | 304 35.8 92 52 0.0 0.0 4.1 0.0 0.00 0.00 0 - 0.02 1642 0.01 0847 0.01 0847 0.02 0940 12.4
5/7/22 63.5 1446 43.4 0054 0.00 0.01 24.38 10.0 35.6 1634 NW | 318 41.6 86 38 0.0 0.0 0.0 0.0 0.00 0.00 10 - - - - - - - - - 12.4
5/6/22 64.9 1507 49.3 0008 0.01 0.01 24.38 4.0 20.2 1944 NW | 310 49.8 97 51 0.0 0.0 3.0 0.0 0.00 0.00 20 - 0.01 0622 0.01 0623 0.01 0623 0.01 0623 12.4
5/5/22 66.4 1212 48.2 0133 0.00 0.00 24.37 4.4 22.8 0536 NW | 305 44.6 88 26 0.0 0.0 0.0 0.0 0.00 0.00 30 - - - - - - - - - 12.4
5/4/22 85.4 1538 39.0 0638 0.00 0.00 24.37 3.1 17.4 1647 NW | 326 42.1 99 17 0.0 0.0 3.2 148.8 9.76 0.00 40 - - - - - - - - - 12.3
5/3/22 77.8 1656 32.2 0557 0.00 0.00 24.37 3.2 16.1 1751 NW | 307 38.0 95 20 0.0 0.0 0.0 69.0 6.83 0.00 20 - - - - - - - - - 12.3
5/2/22 61.5 1357 41.5 0054 0.00 0.00 24.37 10.4 34.1 0433 WNW | 283 36.3 84 29 0.0 0.0 0.0 0.0 0.00 0.00 0 - - - - - - - - - 12.3
5/1/22 75.7 1540 35.6 0620 0.00 0.00 24.37 4.6 18.7 2000 W | 278 40.3 98 20 0.0 0.0 1.3 49.2 5.37 0.00 0 - - - - - - - - - 12.4
4/30/22 65.9 1405 43.8 0508 0.00 2.43 24.37 6.4 23.2 1505 NW | 304 44.3 93 50 0.0 0.0 0.0 0.0 0.00 0.00 0 - - - - - - - - - 12.3
4/29/22 69.2 1438 33.4 0556 0.00 2.43 24.37 4.7 22.5 1804 NW | 326 37.3 97 23 0.0 0.0 0.0 13.9 0.00 0.00 0 - - - - - - - - - 12.4
4/28/22 62.8 1502 41.6 0649 0.00 2.43 24.37 8.5 29.0 1757 NW | 311 37.3 85 37 0.0 0.0 0.0 0.0 0.00 0.00 0 - - - - - - - - - 12.4
4/27/22 66.0 1503 36.5 0555 0.00 2.43 24.37 6.8 23.4 2016 NW | 304 38.8 97 33 0.0 0.0 0.0 0.0 0.00 0.00 0 - - - - - - - - - 12.3
4/26/22 66.8 1428 45.8 0036 0.00 2.43 24.37 8.3 22.5 1730 W | 280 42.2 86 41 0.0 0.0 0.0 1.0 0.00 0.00 0 - - - - - - - - - 12.4
4/25/22 72.0 1427 41.3 0635 0.00 2.43 24.37 5.0 22.6 1714 NW | 309 42.4 96 28 0.0 0.0 0.0 27.3 3.14 0.00 10 - - - - - - - - - 12.4
4/24/22 75.1 1541 36.5 0647 0.00 2.43 24.37 3.2 18.4 1842 WNW | 282 40.9 99 24 0.0 0.0 5.2 53.1 6.42 0.00 20 - - - - - - - - - 12.4
4/23/22 70.6 1656 34.5 0654 0.00 2.43 24.37 3.4 20.9 1714 NW | 320 40.4 99 29 0.0 0.0 6.6 14.7 0.06 0.00 0 - - - - - - - - - 12.4
4/22/22 61.6 1531 34.2 0640 0.01 2.43 24.37 3.7 19.8 1724 W | 269 39.4 99 39 0.0 0.0 6.8 0.0 0.00 0.00 0 - 0.01 1315 0.01 1316 0.01 1316 0.01 1316 12.4
4/21/22 54.1 1130 38.3 0708 0.16 2.42 24.36 2.6 22.0 0123 NW | 315 40.9 99 55 0.0 0.0 8.5 0.0 0.00 0.00 0 0.40 0.27 0121 0.01 0106 0.05 0126 0.11 0135 12.3
4/20/22 51.6 1229 35.5 0505 0.24 2.26 24.20 3.4 16.8 1303 SSE | 168 43.6 100 77 0.0 0.0 11.0 0.0 0.00 0.00 0 0.24 0.16 0046 0.01 1154 0.03 1901 0.06 1928 12.3
4/19/22 56.8 1634 38.5 0034 0.01 2.02 23.96 3.1 17.1 1354 W | 271 41.2 99 50 0.0 0.0 1.9 0.0 0.00 0.00 0 0.24 0.61 0101 0.01 0423 0.01 0423 0.03 0101 12.3
4/18/22 58.7 1317 32.8 0626 0.23 2.01 23.95 3.2 21.2 1333 SSW | 203 42.5 98 53 0.0 0.0 7.0 0.0 0.00 0.00 0 0.23 0.61 0027 0.01 1933 0.03 2020 0.08 2046 12.3
4/17/22 66.2 1549 31.7 0652 0.00 1.78 23.72 2.9 14.6 1515 SW | 220 33.9 100 14 0.4 0.0 7.3 1.0 0.00 0.00 0 - - - - - - - - - 12.3
Max 85.4 - 49.3 - 0.63 2.43 25.13 10.4 35.6 - - 50.2 100 77 1.6 0.0 13.1 148.8 9.76 0.00 - 0.75 0.61 - 0.01 - 0.06 - 0.15 - 12.4
Avg - - - - - 1.26 - 5.2 - - - 41.1 - - 0.1 0.0 - - 1.72 0.00 - 0.33 - - - - - - - - -
Min 50.8 - 30.6 - 0.00 0.00 23.72 2.6 14.6 - - 33.9 84 14 0.0 0.0 0.0 0.0 0.00 0.00 - 0.12 0.01 - 0.01 - 0.01 - 0.01 - 12.3
Total - - - - - - - - - - - - - - 3.1 0.0 - - 51.68 0.00 - - - - - - - - - - -

Last 7 Days

Upper Lake

Hourly Data | America/Los_Angeles
as of 5/17/22 8:40 PM PDT
Date & Time Temp (°F) Temp2 (°F) RH (%) Dew Pt (°F) Wet Bulb (°F) Wind Dir (°) Wind Spd (mph) Wind Gust (mph) WindChill (°F) Leaf Wet (mins) BatVolt (V) Latest Rain (In) Rain 24Hr (In) Storm Total (In) Daily Rain (In) Daily Min Temp (°F) Daily Max Temp (°F) Daily Max Wind (mph) Daily Leaf Wet Hrs (hrs)
5/17/22 - 2000 70.5 70.4 43 46.8 56.6 W | 273 7.2 16.6 - 0.0 12.8 0.00 - - 0.00 40.3 79.4 24.9 2.7
5/17/22 - 1900 74.5 74.5 38 47.3 58.0 WNW | 296 9.0 21.8 - 0.0 13.0 0.00 - - 0.00 40.3 79.4 24.9 2.7
5/17/22 - 1800 76.6 76.8 36 47.6 58.7 WNW | 292 9.7 24.9 - 0.0 13.1 0.00 - - 0.00 40.3 79.4 24.9 2.7
5/17/22 - 1700 76.7 77.0 36 47.9 58.8 WNW | 292 8.4 21.2 - 0.0 13.1 0.00 - - 0.00 40.3 79.4 22.5 2.7
5/17/22 - 1600 77.6 77.8 34 47.2 58.7 WNW | 290 10.0 22.5 - 0.0 13.1 0.00 - - 0.00 40.3 79.4 22.5 2.7
5/17/22 - 1500 77.8 78.1 32 45.5 58.0 WNW | 302 9.8 21.2 - 0.0 13.2 0.00 - - 0.00 40.3 78.8 21.2 2.7
5/17/22 - 1400 76.1 76.5 33 44.8 57.2 WNW | 290 7.9 19.7 - 0.0 13.2 0.00 - - 0.00 40.3 78.0 19.7 2.7
5/17/22 - 1300 73.1 73.5 37 45.2 56.6 WNW | 286 8.6 16.3 - 0.0 13.2 0.00 - - 0.00 40.3 75.0 16.8 2.7
5/17/22 - 1200 70.8 71.2 42 46.5 56.6 W | 275 7.1 16.8 - 0.0 13.1 0.00 - - 0.00 40.3 72.0 16.8 2.7
5/17/22 - 1100 66.7 67.3 52 48.6 56.4 WSW | 255 3.9 10.3 - 0.0 13.1 0.00 - - 0.00 40.3 69.1 10.3 2.7
5/17/22 - 1000 60.9 62.3 61 47.4 53.8 NE | 40 1.4 6.6 - 0.0 13.2 0.00 - - 0.00 40.3 64.4 8.1 2.7
5/17/22 - 0900 54.9 56.2 73 46.6 51.0 NE | 48 1.4 6.4 - 0.0 13.3 0.00 - - 0.00 40.3 58.0 8.1 2.7
5/17/22 - 0800 47.8 48.7 91 45.1 46.9 NNE | 31 2.3 7.2 - 0.0 12.8 0.00 - - 0.00 40.3 50.7 8.1 2.7
5/17/22 - 0700 42.1 42.5 97 41.3 42.0 NE | 45 1.3 3.9 - 57.2 12.5 0.00 - - 0.00 40.3 48.6 8.1 2.7
5/17/22 - 0600 41.8 42.1 96 40.9 41.6 NE | 44 1.4 4.8 - 60.0 12.4 0.00 - - 0.00 40.3 48.6 8.1 1.8
5/17/22 - 0500 42.7 43.0 96 41.7 42.5 NW | 326 1.0 4.1 - 47.6 12.5 0.00 - - 0.00 42.3 48.6 8.1 0.8
5/17/22 - 0400 44.2 44.4 95 42.9 44.0 NE | 41 1.9 5.5 - 0.0 12.5 0.00 - - 0.00 43.2 48.6 8.1 0.0
5/17/22 - 0300 45.4 45.8 94 44.0 45.1 NE | 45 4.2 8.1 - 0.0 12.5 0.00 - - 0.00 44.7 48.6 8.1 0.0
5/17/22 - 0200 46.8 47.1 93 44.8 46.3 NE | 47 2.9 6.0 - 0.0 12.5 0.00 - - 0.00 45.3 48.6 6.0 0.0
5/17/22 - 0100 49.9 50.3 87 46.2 48.5 NNE | 25 2.7 9.6 - 0.0 12.6 0.00 - - 0.00 41.5 72.9 24.3 0.0
5/17/22 - 0000 52.0 52.3 84 47.1 50.0 NNE | 12 2.6 10.5 - 0.0 12.6 0.00 - - 0.00 41.5 72.9 24.3 0.0
5/16/22 - 2300 56.3 56.4 70 46.8 51.7 WNW | 300 6.7 18.1 - 0.0 12.6 0.00 - - 0.00 41.5 72.9 24.3 0.0
5/16/22 - 2200 57.5 57.6 67 46.8 52.2 WNW | 303 4.0 11.5 - 0.0 12.6 0.00 - - 0.00 41.5 72.9 24.3 0.0
5/16/22 - 2100 60.2 60.3 62 47.3 53.5 W | 261 4.8 17.1 - 0.0 12.7 0.00 - - 0.00 41.5 72.9 24.3 0.0
5/16/22 - 2000 63.8 63.9 57 48.4 55.4 WNW | 292 10.0 19.0 - 0.0 12.8 0.00 - - 0.00 41.5 72.9 24.3 0.0
5/16/22 - 1900 68.0 68.2 52 49.6 57.4 WNW | 298 10.7 22.2 - 0.0 13.0 0.00 - - 0.00 41.5 72.9 24.3 0.0
5/16/22 - 1800 70.4 70.7 50 50.7 58.7 WNW | 296 8.8 23.7 - 0.0 13.2 0.00 - - 0.00 41.5 72.9 24.3 0.0
5/16/22 - 1700 71.5 71.8 50 52.0 59.7 WNW | 291 9.4 20.4 - 0.0 13.2 0.00 - - 0.00 41.5 72.9 24.3 0.0
5/16/22 - 1600 71.5 71.8 49 51.3 59.3 WNW | 292 11.1 21.6 - 0.0 13.2 0.00 - - 0.00 41.5 72.7 24.3 0.0
5/16/22 - 1500 71.5 71.8 48 50.9 59.1 WNW | 286 10.1 21.5 - 0.0 13.2 0.00 - - 0.00 41.5 72.7 24.3 0.0
5/16/22 - 1400 69.9 70.4 50 50.6 58.5 WNW | 292 9.6 22.5 - 0.0 13.2 0.00 - - 0.00 41.5 71.8 24.3 0.0
5/16/22 - 1300 67.2 67.7 51 48.7 56.7 WNW | 292 10.2 19.4 - 0.0 13.2 0.00 - - 0.00 41.5 68.7 24.3 0.0
5/16/22 - 1200 64.6 65.1 53 47.2 55.0 WNW | 303 10.6 22.1 - 0.0 13.2 0.00 - - 0.00 41.5 66.9 24.3 0.0
5/16/22 - 1100 60.3 60.9 62 47.1 53.4 NW | 307 11.3 23.9 - 0.0 13.2 0.00 - - 0.00 41.5 62.5 24.3 0.0
5/16/22 - 1000 56.1 56.9 70 46.5 51.4 WNW | 292 8.4 18.8 - 0.0 13.3 0.00 - - 0.00 41.5 58.6 24.3 0.0
5/16/22 - 0900 52.5 53.1 79 46.1 49.7 WNW | 282 8.9 18.4 - 0.0 13.4 0.00 - - 0.00 41.5 53.4 24.3 0.0
5/16/22 - 0800 50.8 51.4 81 45.2 48.4 NW | 313 7.4 18.0 - 0.0 12.8 0.00 - - 0.00 41.5 52.5 24.3 0.0
5/16/22 - 0700 44.7 45.5 91 42.1 43.8 N | 5 5.6 17.9 41.6 0.0 12.5 0.00 - - 0.00 41.5 52.5 24.3 0.0
5/16/22 - 0600 44.8 45.4 89 41.7 43.7 NNE | 17 3.8 11.6 - 0.0 12.4 0.00 - - 0.00 41.7 52.5 24.3 0.0
5/16/22 - 0500 48.1 48.4 83 43.3 46.1 NNW | 343 4.7 15.2 - 0.0 12.5 0.00 - - 0.00 45.5 52.5 24.3 0.0
5/16/22 - 0400 49.1 49.3 82 43.9 46.9 NNW | 344 5.5 20.5 46.8 0.0 12.5 0.00 - - 0.00 46.1 52.5 24.3 0.0
5/16/22 - 0300 51.0 51.2 76 43.7 47.8 NW | 307 11.2 24.3 - 0.0 12.5 0.00 - - 0.00 50.1 52.5 24.3 0.0
5/16/22 - 0200 52.1 52.3 72 43.4 48.1 WNW | 300 8.6 20.4 - 0.0 12.5 0.00 - - 0.00 51.6 52.5 20.4 0.0
5/16/22 - 0100 52.9 53.1 70 43.3 48.4 NW | 322 6.1 19.2 - 0.0 12.5 0.00 - - 0.00 47.1 75.1 25.6 2.6
5/16/22 - 0000 54.1 54.3 65 42.6 48.6 WNW | 292 8.6 16.3 - 0.0 12.6 0.00 - - 0.00 47.1 75.1 25.6 2.6
5/15/22 - 2300 56.9 57.0 60 43.0 49.9 WNW | 293 9.6 20.7 - 0.0 12.6 0.00 - - 0.00 47.1 75.1 25.6 2.6
5/15/22 - 2200 58.5 58.5 58 44.0 51.1 W | 279 8.9 19.4 - 0.0 12.6 0.00 - - 0.00 47.1 75.1 25.6 2.6
5/15/22 - 2100 61.0 61.0 56 45.3 52.7 WNW | 292 9.0 19.4 - 0.0 12.7 0.00 - - 0.00 47.1 75.1 25.6 2.6
5/15/22 - 2000 66.1 66.1 51 47.5 55.6 NW | 310 7.6 20.4 - 0.0 12.8 0.00 - - 0.00 47.1 75.1 25.6 2.6
5/15/22 - 1900 69.1 69.3 48 48.8 57.3 WNW | 298 8.1 20.9 - 0.0 13.1 0.00 - - 0.00 47.1 75.1 25.6 2.6
5/15/22 - 1800 69.5 69.9 53 51.8 59.1 WNW | 293 9.1 19.1 - 0.0 13.2 0.00 - - 0.00 47.1 75.1 25.6 2.6
5/15/22 - 1700 70.6 70.8 55 53.5 60.4 WNW | 295 11.7 22.6 - 0.0 13.2 0.00 - - 0.00 47.1 75.1 25.6 2.6
5/15/22 - 1600 73.6 74.0 53 55.6 62.5 WNW | 303 10.6 23.3 - 0.0 13.2 0.00 - - 0.00 47.1 75.1 25.6 2.6
5/15/22 - 1500 73.3 73.6 56 56.7 63.1 WNW | 299 10.6 21.5 - 0.0 13.2 0.00 - - 0.00 47.1 74.8 25.6 2.6
5/15/22 - 1400 73.5 73.8 56 56.8 63.3 WNW | 286 9.3 21.5 - 0.0 13.1 0.00 - - 0.00 47.1 74.8 25.6 2.6
5/15/22 - 1300 73.4 73.8 54 56.1 62.8 WNW | 290 9.8 19.6 - 0.0 13.2 0.00 - - 0.00 47.1 74.6 25.6 2.6
5/15/22 - 1200 71.6 71.9 56 55.0 61.6 WNW | 290 12.9 23.4 - 0.0 13.2 0.00 - - 0.00 47.1 73.0 25.6 2.6
5/15/22 - 1100 69.0 69.3 59 54.0 60.3 WNW | 292 12.1 25.6 - 0.0 13.2 0.00 - - 0.00 47.1 70.2 25.6 2.6
5/15/22 - 1000 66.7 67.1 63 53.6 59.4 WNW | 288 10.2 20.9 - 0.0 13.2 0.00 - - 0.00 47.1 68.1 21.4 2.6
5/15/22 - 0900 63.0 63.5 71 53.4 58.1 WNW | 287 8.9 20.6 - 0.0 13.3 0.00 - - 0.00 47.1 65.1 21.4 2.6
5/15/22 - 0800 55.2 56.1 88 51.8 54.2 NE | 38 2.9 21.4 - 0.0 12.7 0.00 - - 0.00 47.1 61.7 21.4 2.6
5/15/22 - 0700 48.1 48.5 98 47.4 48.4 N | 354 0.7 3.7 - 56.7 12.5 0.00 - - 0.00 47.1 55.1 3.7 2.6
5/15/22 - 0600 48.1 48.2 97 47.4 48.4 NW | 319 1.1 3.7 - 60.0 12.4 0.00 - - 0.00 47.6 55.1 3.7 1.6
5/15/22 - 0500 48.5 48.6 97 47.6 48.8 N | 356 0.9 3.3 - 38.7 12.5 0.00 - - 0.00 47.7 55.1 3.3 0.6
5/15/22 - 0400 50.0 50.0 96 48.8 50.1 NE | 35 0.5 2.7 - 0.0 12.5 0.00 - - 0.00 49.3 55.1 3.3 0.0
5/15/22 - 0300 51.4 51.5 95 50.0 51.5 NNW | 339 0.5 2.5 - 0.0 12.5 0.00 - - 0.00 50.4 55.1 3.3 0.0
5/15/22 - 0200 53.4 53.4 93 51.3 53.2 NNE | 18 1.3 3.3 - 0.0 12.5 0.00 - - 0.00 52.1 55.1 3.3 0.0
5/15/22 - 0100 55.7 55.8 89 52.4 54.9 NE | 39 4.0 6.9 - 0.0 12.6 0.00 - - 0.00 43.4 81.5 19.0 3.6
5/15/22 - 0000 59.6 59.6 79 53.2 56.8 NE | 34 2.7 9.5 - 0.0 12.6 0.00 - - 0.00 43.4 81.5 19.0 3.6
5/14/22 - 2300 64.8 64.8 66 53.0 58.4 NNW | 344 5.4 18.5 - 0.0 12.6 0.00 - - 0.00 43.4 81.5 19.0 3.6
5/14/22 - 2200 67.6 67.4 59 52.7 59.1 NNW | 327 6.4 15.9 - 0.0 12.6 0.00 - - 0.00 43.4 81.5 19.0 3.6
5/14/22 - 2100 69.7 69.5 55 53.0 59.8 NW | 307 6.8 15.7 - 0.0 12.6 0.00 - - 0.00 43.4 81.5 19.0 3.6
5/14/22 - 2000 73.2 73.0 49 52.9 60.7 WNW | 301 6.3 13.9 - 0.0 12.7 0.00 - - 0.00 43.4 81.5 19.0 3.6
5/14/22 - 1900 76.2 76.3 44 53.0 61.5 WNW | 297 7.5 15.6 - 0.0 12.9 0.00 - - 0.00 43.4 81.5 19.0 3.6
5/14/22 - 1800 78.5 78.6 43 54.0 62.6 WNW | 292 8.7 19.0 - 0.0 13.1 0.00 - - 0.00 43.4 81.5 19.0 3.6
5/14/22 - 1700 80.4 80.6 38 52.5 62.1 WNW | 300 7.9 18.7 - 0.0 13.1 0.00 - - 0.00 43.4 81.5 18.7 3.6
5/14/22 - 1600 80.7 80.9 34 50.0 60.8 WNW | 293 5.8 13.9 - 0.0 13.1 0.00 - - 0.00 43.4 81.5 13.9 3.6
5/14/22 - 1500 79.4 79.8 34 48.4 59.7 WNW | 287 5.8 13.3 - 0.0 13.1 0.00 - - 0.00 43.4 80.6 13.5 3.6
5/14/22 - 1400 77.7 78.2 32 45.4 57.9 W | 260 3.7 9.4 - 0.0 13.1 0.00 - - 0.00 43.4 79.8 13.5 3.6
5/14/22 - 1300 74.7 75.2 37 46.9 57.8 W | 273 4.8 12.8 - 0.0 13.1 0.00 - - 0.00 43.4 77.0 13.5 3.6
5/14/22 - 1200 72.1 72.4 40 46.4 56.9 WNW | 289 6.9 13.5 - 0.0 13.1 0.00 - - 0.00 43.4 73.2 13.5 3.6
5/14/22 - 1100 69.3 69.7 51 49.9 58.0 WSW | 245 3.9 10.8 - 0.0 13.1 0.00 - - 0.00 43.4 71.3 10.8 3.6
5/14/22 - 1000 63.3 64.0 68 52.5 57.6 S | 170 2.2 5.8 - 0.0 13.2 0.00 - - 0.00 43.4 67.0 7.6 3.6
5/14/22 - 0900 57.7 59.0 75 49.6 53.9 E | 95 1.0 3.4 - 0.0 13.3 0.00 - - 0.00 43.4 61.3 7.6 3.6
5/14/22 - 0800 49.8 50.9 90 47.1 49.0 NNE | 32 1.1 4.2 - 3.7 12.7 0.00 - - 0.00 43.4 53.4 7.6 3.6
5/14/22 - 0700 44.3 44.8 97 43.5 44.3 NE | 48 1.8 4.2 - 60.0 12.5 0.00 - - 0.00 43.4 53.1 7.6 3.5
5/14/22 - 0600 45.2 45.4 97 44.4 45.3 NE | 36 2.9 7.6 - 60.0 12.4 0.00 - - 0.00 43.6 53.1 7.6 2.5
5/14/22 - 0500 45.0 45.3 97 44.2 45.1 NW | 320 0.5 3.4 - 60.0 12.5 0.00 - - 0.00 44.4 53.1 6.0 1.5
5/14/22 - 0400 45.9 46.0 96 44.9 45.9 N | 350 0.6 3.9 - 30.0 12.5 0.00 - - 0.00 44.9 53.1 6.0 0.5
5/14/22 - 0300 47.5 47.6 95 46.1 47.4 NNE | 15 1.2 3.7 - 0.0 12.5 0.00 - - 0.00 46.1 53.1 6.0 0.0
5/14/22 - 0200 50.8 51.0 91 48.2 50.1 NNE | 27 2.4 6.0 - 0.0 12.5 0.00 - - 0.00 48.8 53.1 6.0 0.0
5/14/22 - 0100 53.4 53.5 87 49.5 52.0 N | 4 2.2 6.4 - 0.0 12.6 0.00 - - 0.00 37.6 70.7 21.6 1.2
5/14/22 - 0000 57.0 57.1 80 50.9 54.4 NW | 322 6.9 15.3 - 0.0 12.6 0.00 - - 0.00 37.6 70.7 21.6 1.2
5/13/22 - 2300 58.6 58.7 77 51.4 55.3 WNW | 302 8.7 16.7 - 0.0 12.6 0.00 - - 0.00 37.6 70.7 21.6 1.2
5/13/22 - 2200 60.4 60.5 73 51.6 56.1 WNW | 289 12.1 19.5 - 0.0 12.6 0.00 - - 0.00 37.6 70.7 21.6 1.2
5/13/22 - 2100 62.4 62.4 68 51.9 57.0 WNW | 295 9.6 18.0 - 0.0 12.7 0.00 - - 0.00 37.6 70.7 21.6 1.2
5/13/22 - 2000 65.7 65.7 62 52.2 58.2 WNW | 297 9.5 20.1 - 0.0 12.8 0.00 - - 0.00 37.6 70.7 21.6 1.2
5/13/22 - 1900 68.7 68.8 55 52.0 59.0 WNW | 293 9.3 18.7 - 0.0 13.0 0.00 - - 0.00 37.6 70.7 21.6 1.2
5/13/22 - 1800 70.0 70.2 51 50.9 58.7 WNW | 297 10.3 21.6 - 0.0 13.2 0.00 - - 0.00 37.6 70.7 21.6 1.2
5/13/22 - 1700 70.1 70.4 51 50.9 58.8 WNW | 294 9.6 20.2 - 0.0 13.2 0.00 - - 0.00 37.6 70.7 21.6 1.2
5/13/22 - 1600 69.5 69.9 51 50.9 58.6 WNW | 297 9.7 21.6 - 0.0 13.2 0.00 - - 0.00 37.6 70.2 21.6 1.2
5/13/22 - 1500 69.0 69.4 53 51.0 58.5 WNW | 302 6.5 15.4 - 0.0 13.2 0.00 - - 0.00 37.6 69.7 18.0 1.2
5/13/22 - 1400 67.7 68.1 55 51.0 58.1 WNW | 283 5.6 15.9 - 0.0 13.2 0.00 - - 0.00 37.6 69.3 18.0 1.2
5/13/22 - 1300 66.9 67.4 55 50.4 57.5 WNW | 284 6.6 18.0 - 0.0 13.2 0.00 - - 0.00 37.6 68.7 18.0 1.2
5/13/22 - 1200 64.2 64.7 59 49.4 56.1 WNW | 287 5.9 14.8 - 0.0 13.2 0.00 - - 0.00 37.6 65.8 14.8 1.2
5/13/22 - 1100 61.9 62.4 62 48.6 54.8 W | 279 6.4 14.8 - 0.0 13.2 0.00 - - 0.00 37.6 62.9 14.8 1.2
5/13/22 - 1000 58.0 57.8 67 47.0 52.5 SSE | 163 3.9 7.6 - 0.0 13.2 0.00 - - 0.00 37.6 60.9 7.6 1.2
5/13/22 - 0900 53.4 54.1 72 44.6 49.3 SE | 136 1.7 6.6 - 0.0 13.3 0.00 - - 0.00 37.6 56.1 6.6 1.2
5/13/22 - 0800 46.6 47.5 89 43.4 45.4 NE | 53 1.9 5.2 - 0.0 12.7 0.00 - - 0.00 37.6 50.0 5.2 1.2
5/13/22 - 0700 39.1 39.8 97 38.4 38.9 NW | 319 1.4 3.4 - 42.4 12.4 0.00 - - 0.00 37.6 43.6 4.9 1.2
5/13/22 - 0600 38.4 38.7 96 37.5 38.1 NW | 313 1.0 3.7 - 26.9 12.4 0.00 - - 0.00 37.6 43.6 4.9 0.4
5/13/22 - 0500 39.6 39.8 96 38.4 39.2 NNE | 27 0.9 4.2 - 0.0 12.4 0.00 - - 0.00 38.5 43.6 4.9 0.0
5/13/22 - 0400 40.4 40.7 95 39.0 40.0 N | 9 0.9 4.9 - 0.0 12.5 0.00 - - 0.00 39.8 43.6 4.9 0.0
5/13/22 - 0300 41.1 41.3 93 39.3 40.5 NW | 314 0.6 3.7 - 0.0 12.5 0.00 - - 0.00 40.6 43.6 3.9 0.0
5/13/22 - 0200 42.4 42.6 91 40.0 41.5 N | 349 1.1 3.9 - 0.0 12.5 0.00 - - 0.00 41.3 43.6 3.9 0.0
5/13/22 - 0100 46.2 46.5 82 41.1 44.1 N | 2 2.7 9.2 - 0.0 12.6 0.00 - - 0.00 35.6 62.1 18.8 0.0
5/13/22 - 0000 49.0 49.1 75 41.2 45.5 NW | 304 3.1 10.5 - 0.0 12.6 0.00 - - 0.00 35.6 62.1 18.8 0.0
5/12/22 - 2300 50.2 50.3 73 42.0 46.5 NW | 310 3.2 10.0 - 0.0 12.6 0.00 - - 0.00 35.6 62.1 18.8 0.0
5/12/22 - 2200 51.2 51.3 72 42.6 47.2 W | 271 4.4 8.7 - 0.0 12.6 0.00 - - 0.00 35.6 62.1 18.8 0.0
5/12/22 - 2100 53.4 53.4 66 42.4 48.1 W | 276 4.6 10.0 - 0.0 12.7 0.00 - - 0.00 35.6 62.1 18.8 0.0
5/12/22 - 2000 56.6 56.8 58 41.9 49.3 W | 273 4.6 18.8 - 0.0 12.8 0.00 - - 0.00 35.6 62.1 18.8 0.0
5/12/22 - 1900 59.6 60.0 51 41.6 50.4 WNW | 289 7.1 17.9 - 0.0 13.1 0.00 - - 0.00 35.6 62.1 18.8 0.0
5/12/22 - 1800 60.8 61.3 49 41.4 50.8 W | 280 8.2 17.6 - 0.0 13.3 0.00 - - 0.00 35.6 62.1 18.8 0.0
5/12/22 - 1700 61.2 61.8 47 41.0 50.7 W | 274 8.0 17.5 - 0.0 13.3 0.00 - - 0.00 35.6 62.1 18.8 0.0
5/12/22 - 1600 61.4 61.9 44 39.1 49.9 W | 272 7.9 17.4 - 0.0 13.3 0.00 - - 0.00 35.6 62.1 18.8 0.0
5/12/22 - 1500 60.6 61.2 44 38.9 49.6 W | 280 8.4 18.8 - 0.0 13.3 0.00 - - 0.00 35.6 62.1 18.8 0.0
5/12/22 - 1400 59.0 59.7 48 39.3 49.1 W | 280 7.3 17.8 - 0.0 13.3 0.00 - - 0.00 35.6 60.1 18.1 0.0
5/12/22 - 1300 56.4 57.1 49 37.4 47.2 WNW | 300 8.0 15.7 - 0.0 13.3 0.00 - - 0.00 35.6 57.9 18.1 0.0
5/12/22 - 1200 53.0 53.7 54 37.0 45.5 WNW | 290 5.7 15.4 - 0.0 13.3 0.00 - - 0.00 35.6 55.0 18.1 0.0
5/12/22 - 1100 50.6 51.4 61 37.5 44.6 WNW | 299 3.2 11.4 - 0.0 13.4 0.00 - - 0.00 35.6 51.9 18.1 0.0
5/12/22 - 1000 46.9 47.5 69 37.2 42.6 WNW | 294 7.9 16.6 43.1 0.0 13.5 0.00 - - 0.00 35.6 48.4 18.1 0.0
5/12/22 - 0900 45.4 46.1 75 38.1 42.3 W | 281 6.9 15.3 41.7 0.0 13.5 0.00 - - 0.00 35.6 46.7 18.1 0.0
5/12/22 - 0800 41.1 42.0 86 37.3 39.5 NNE | 33 2.2 9.6 - 0.0 13.0 0.00 - - 0.00 35.6 44.6 18.1 0.0
5/12/22 - 0700 36.4 37.0 94 34.8 35.8 NNE | 29 3.3 6.6 33.9 0.0 12.5 0.00 - - 0.00 35.6 42.1 18.1 0.0
5/12/22 - 0600 38.5 38.9 89 35.4 37.2 NNW | 339 4.7 16.3 34.9 0.0 12.4 0.00 - - 0.00 35.6 42.1 18.1 0.0
5/12/22 - 0500 39.8 40.3 86 36.0 38.3 NW | 317 6.4 18.1 35.3 0.0 12.4 0.00 - - 0.00 35.9 42.1 18.1 0.0
5/12/22 - 0400 38.9 39.4 88 35.8 37.6 N | 4 3.8 13.8 36.2 0.0 12.5 0.00 - - 0.00 35.9 42.1 13.8 0.0
5/12/22 - 0300 38.5 38.9 91 36.1 37.6 NNE | 31 3.3 13.0 36.2 0.0 12.5 0.00 - - 0.00 37.1 41.8 13.0 0.0
5/12/22 - 0200 40.0 40.4 88 36.9 38.8 NNE | 25 2.7 9.4 - 0.0 12.5 0.00 - - 0.00 39.2 41.8 9.4 0.0
5/12/22 - 0100 43.3 43.6 79 37.2 40.7 NW | 307 6.0 13.0 39.6 0.0 12.5 0.00 - - 0.00 31.3 61.8 26.3 2.6
5/12/22 - 0000 44.0 44.3 78 37.5 41.3 NW | 314 4.7 12.2 41.4 0.0 12.6 0.00 - - 0.00 31.3 61.8 26.3 2.6
5/11/22 - 2300 45.4 45.7 75 38.0 42.2 WNW | 302 6.5 12.7 42.0 0.0 12.6 0.00 - - 0.00 31.3 61.8 26.3 2.6
5/11/22 - 2200 47.0 47.2 74 39.0 43.5 WNW | 289 6.0 15.4 44.1 0.0 12.6 0.00 - - 0.00 31.3 61.8 26.3 2.6
5/11/22 - 2100 49.3 49.5 70 39.8 45.0 WNW | 289 5.9 16.6 46.8 0.0 12.7 0.00 - - 0.00 31.3 61.8 26.3 2.6
5/11/22 - 2000 52.7 53.0 63 40.4 46.9 WNW | 288 8.1 16.9 - 0.0 12.8 0.00 - - 0.00 31.3 61.8 26.3 2.6
5/11/22 - 1900 56.3 56.6 55 40.3 48.4 WNW | 294 8.6 20.9 - 0.0 13.1 0.00 - - 0.00 31.3 61.8 26.3 2.6
5/11/22 - 1800 59.0 59.4 51 40.9 49.8 W | 281 9.7 26.3 - 0.0 13.3 0.00 - - 0.00 31.3 61.8 26.3 2.6
5/11/22 - 1700 59.9 60.3 51 41.7 50.5 WNW | 293 10.0 21.3 - 0.0 13.3 0.00 - - 0.00 31.3 61.8 21.3 2.6
5/11/22 - 1600 60.7 61.2 46 39.8 50.0 WNW | 293 9.6 20.9 - 0.0 13.3 0.00 0.01 0.75 0.00 31.3 61.8 20.9 2.6
5/11/22 - 1500 60.6 61.2 43 38.0 49.2 WNW | 288 7.9 17.8 - 0.0 13.4 0.00 0.16 0.75 0.00 31.3 61.5 20.0 2.6
5/11/22 - 1400 59.5 60.1 43 37.2 48.4 WNW | 297 7.7 19.2 - 0.0 13.3 0.00 0.25 0.75 0.00 31.3 60.5 20.0 2.6
5/11/22 - 1300 58.2 59.0 45 36.8 47.7 WNW | 287 7.7 20.0 - 0.0 13.3 0.00 0.30 0.75 0.00 31.3 59.3 20.0 2.6
5/11/22 - 1200 56.2 56.9 48 36.8 46.9 W | 279 7.3 17.9 - 0.0 13.3 0.00 0.34 0.75 0.00 31.3 57.9 17.9 2.6
5/11/22 - 1100 53.1 53.8 55 37.4 45.7 WSW | 252 4.5 11.0 - 0.0 13.3 0.00 0.38 0.75 0.00 31.3 54.7 11.2 2.6
5/11/22 - 1000 48.9 49.7 62 36.2 43.2 W | 269 4.7 11.2 - 0.0 13.4 0.00 0.42 0.75 0.00 31.3 51.2 11.2 2.6
5/11/22 - 0900 43.5 44.6 77 36.8 40.7 NE | 41 2.6 7.7 - 0.0 13.5 0.00 0.46 0.75 0.00 31.3 47.2 8.4 2.6
5/11/22 - 0800 36.8 38.0 90 34.1 35.7 NE | 55 1.8 4.4 - 2.4 12.7 0.00 0.52 0.75 0.00 31.3 42.2 8.4 2.6
5/11/22 - 0700 32.2 32.9 97 31.4 31.8 NE | 38 1.8 4.4 - 60.0 12.4 0.00 0.63 0.75 0.00 31.3 37.8 8.4 2.5
5/11/22 - 0600 32.0 32.6 97 31.3 31.7 N | 8 1.0 4.6 - 60.0 12.4 0.00 0.63 0.75 0.00 31.6 37.8 8.4 1.5
5/11/22 - 0500 32.9 33.3 96 31.8 32.4 NW | 321 1.3 5.8 - 31.8 12.4 0.00 0.63 0.75 0.00 32.0 37.8 8.4 0.5
5/11/22 - 0400 34.0 34.4 95 32.7 33.4 N | 354 2.0 5.6 - 0.0 12.4 0.00 0.63 0.75 0.00 33.4 37.8 8.4 0.0
5/11/22 - 0300 35.9 36.3 92 33.7 35.0 NNE | 33 3.0 8.4 - 0.0 12.5 0.00 0.63 0.75 0.00 34.5 37.8 8.4 0.0
5/11/22 - 0200 35.8 36.3 92 33.8 35.0 NNE | 18 2.8 6.9 - 0.0 12.5 0.00 0.63 0.75 0.00 35.4 36.4 6.9 0.0
5/11/22 - 0100 36.9 37.2 91 34.4 35.9 NNE | 21 2.2 6.4 - 0.0 12.5 0.00 0.63 0.75 0.63 30.6 50.8 24.6 13.1
5/11/22 - 0000 39.6 40.0 84 35.0 37.7 N | 2 4.6 10.6 36.4 0.0 12.6 0.00 0.63 0.75 0.63 30.6 50.8 24.6 13.1
5/10/22 - 2300 41.9 42.2 78 35.5 39.2 WNW | 292 4.9 10.4 38.8 0.0 12.6 0.00 0.63 0.75 0.63 30.6 50.8 24.6 13.1
5/10/22 - 2200 43.1 43.4 75 35.8 40.1 W | 272 4.2 14.5 40.8 0.0 12.7 0.00 0.63 0.75 0.63 30.6 50.8 24.6 13.1
5/10/22 - 2100 43.7 43.9 77 36.8 40.8 WNW | 298 2.9 8.4 - 0.0 12.8 0.00 0.63 0.75 0.63 30.6 50.8 24.6 13.1
Max 80.7 80.9 98 56.8 63.3 - 12.9 26.3 46.8 60.0 13.5 0.00 0.63 0.75 0.63 52.1 81.5 26.3 13.1
Avg 56.4 56.8 68 44.6 50.1 - 5.8 14.0 40.0 4.5 12.9 0.00 0.49 0.75 - - - - -
Min 32.0 32.6 32 31.3 31.7 - 0.5 2.5 33.9 0.0 12.4 0.00 0.01 0.75 0.00 30.6 36.4 3.3 0.0
Total - - - - - - - - - - - 0.00 - - - - - - -

Chilling & Growing Degree Days

Upper Lake

Daily Data | America/Los_Angeles
as of 5/17/22 8:40 PM PDT
Date Chilling <=45F (hrs) Chill Hrs 32-45F (hrs) Utah Chilling (Units) GDDs (DL) GDDs (Mx/Mn) Seas GDDs (DL) Seas GDDs (Smpl)
5/16/22 1.1 1.1 -3.0 9.1 7.2 254 165
5/15/22 0.0 0.0 -8.5 11.8 11.1 245 158
5/14/22 1.9 1.9 -7.0 14.7 12.4 233 146
5/13/22 6.3 6.3 -2.0 9.4 4.2 219 134
5/12/22 7.5 7.5 11.0 3.5 0.0 209 130
5/11/22 10.0 8.9 8.0 3.2 0.0 206 130
5/10/22 17.3 15.6 17.0 0.0 0.0 202 130
Max 17.3 15.6 17.0 14.7 12.4 - -
Avg 6.3 5.9 2.2 7.4 5.0 - -
Min 0.0 0.0 -8.5 0.0 0.0 - -
Total 44.0 41.3 15.5 51.7 34.8 - -
Calm: 0.0%

Upper Lake Climate Summary

Current Year

Current Year | Showing 1/1/22 - 5/16/22
as of 5/17/22 8:40 PM PDT
Temperature (°F) Max Wind Gust (mph) Precip (in) Days
Month Days Avg High Avg Low Max Min Avg Max Total Daily Min Temp < 28 Daily Min Temp < 32 Daily Max Temp > 90 Daily Max Temp > 100 Daily Rain > 0.01 Daily Rain > 0.1
Jan 2022 31 60.7 30.4 72.1 22.9 12.3 36.3 0.74 11 23 0 0 4 2
Feb 2022 28 66.3 28.5 80.5 17.1 14.6 31.9 1.81 14 21 0 0 3 3
Mar 2022 31 66.7 35.7 83.3 25.9 19.6 31.5 1.73 5 10 0 0 8 6
Apr 2022 30 65.1 37.5 88.1 29.7 21.9 38.5 2.43 0 2 0 0 7 7
May 2022 16 67.2 39.2 85.4 30.6 23.8 35.6 0.76 0 2 0 0 3 1
Total 136 - - - - - - 7.47 30 58 0 0 25 19
Average 27.2 65 33.8 65 33.8 17.9 - 1.49 6 11.6 0 0 5 3.8
Maximum 31 67.2 39.2 88.1 - - 38.5 2.43 14 23 0 0 8 7
Minimum 16 60.7 28.5 - 17.1 - - 0.74 0 2 0 0 3 1

Upper Lake Climate Summary

Last Year

Last Year | Showing 1/1/21 - 12/31/21
as of 5/17/22 8:40 PM PDT
Temperature (°F) Max Wind Gust (mph) Precip (in) Days
Month Days Avg High Avg Low Max Min Avg Max Total Daily Min Temp < 28 Daily Min Temp < 32 Daily Max Temp > 90 Daily Max Temp > 100 Daily Rain > 0.01 Daily Rain > 0.1
Jan 2021 31 56 35.2 77 22.7 15.9 32.7 4.45 4 9 0 0 17 10
Feb 2021 28 60.1 33.3 74 27.7 18 30.5 2.42 3 15 0 0 10 8
Mar 2021 31 61 31.9 77.8 26.9 19.8 29.7 2.75 5 18 0 0 7 6
Apr 2021 30 73.7 36.7 86.5 31.4 21.7 27.2 0.1 0 1 0 0 1 0
May 2021 31 79.8 43.3 100.7 34.3 23.7 34.5 0.24 0 0 2 1 1 1
Jun 2021 30 88.8 50.9 106.4 37.8 21.4 36.6 2.35 0 0 15 5 4 3
Jul 2021 31 98 54.9 106 49.2 19.8 23.9 1.45 0 0 29 13 4 3
Aug 2021 31 96.7 53.1 106.2 45.4 19.7 32.9 0 0 0 28 10 0 0
Sep 2021 30 90 48 100.3 38.2 18.2 25.1 0.15 0 0 17 1 3 0
Oct 2021 31 71 42.1 93 31.5 17 30.8 2.55 0 1 4 0 10 9
Nov 2021 30 65.4 36.9 76.4 25.8 12 26 1.71 2 8 0 0 6 5
Dec 2021 31 51.7 33 78.3 24.9 14.4 30 7.8 8 17 0 0 16 13
Total 365 - - - - - - 25.97 22 69 95 30 79 58
Average 30.4 74.4 41.7 74.4 41.7 18.5 - 2.16 1.8 5.8 7.9 2.5 6.6 4.8
Maximum 31 98 54.9 106.4 - - 36.6 7.8 8 18 29 13 17 13
Minimum 28 51.7 31.9 - 22.7 - - 0 0 0 0 0 0 0

Climate Summary 2019

Upper Lake

1/1/2019 - 12/31/2019 | Showing 1/1/19 - 12/31/19
as of 5/17/22 8:40 PM PDT
Temperature (°F) Max Wind Gust (mph) Precip (in) Days
Month Days Avg High Avg Low Max Min Avg Max Total Daily Min Temp < 28 Daily Min Temp < 32 Daily Max Temp > 90 Daily Max Temp > 100 Daily Rain > 0.01 Daily Rain > 0.1
Jan 2019 31 57.8 36.4 71.8 24.8 13.7 26.4 9.44 3 9 0 0 11 11
Feb 2019 28 49.6 34 57.1 23 17.1 31 15.92 8 12 0 0 19 16
Mar 2019 31 59.4 37.1 74 27.9 14.7 26.8 6.68 1 4 0 0 15 11
Apr 2019 30 71.5 44.9 89.7 37.6 15 28.2 0.94 0 0 0 0 8 2
May 2019 31 73.7 44.5 86.5 35.8 14.6 20.2 3.63 0 0 0 0 9 5
Jun 2019 30 87.2 50.8 97 39.1 13.4 20.7 0.01 0 0 12 0 0 0
Jul 2019 31 89.9 53.2 97.5 47.9 13.4 17.4 0.03 0 0 17 0 1 0
Aug 2019 31 91.7 53.8 98.8 48 13.1 22.2 0.01 0 0 21 0 0 0
Sep 2019 30 83.1 46.8 97.4 33.5 13.6 25.8 0.24 0 0 11 0 3 1
Oct 2019 31 77 34.1 88.6 22.1 13.3 30.9 0.03 4 10 0 0 1 0
Nov 2019 30 69.8 32.5 82.9 23.7 12.4 37.9 1.66 6 15 0 0 3 3
Dec 2019 31 53.7 37.7 61.9 24 12.6 30.2 6.33 4 10 0 0 17 10
Total 365 - - - - - - 44.92 26 60 61 0 87 59
Average 30.4 72.2 42.2 72.2 42.2 13.9 - 3.74 2.2 5 5.1 0 7.2 4.9
Maximum 31 91.7 53.8 98.8 - - 37.9 15.92 8 15 21 0 19 16
Minimum 28 49.6 32.5 - 22.1 - - 0.01 0 0 0 0 0 0

Climate Summary 2018

Upper Lake

1/1/2018 - 12/31/2018 | Showing 1/1/18 - 12/31/18
as of 5/17/22 8:40 PM PDT
Temperature (°F) Max Wind Gust (mph) Precip (in) Days
Month Days Avg High Avg Low Max Min Avg Max Total Daily Min Temp < 28 Daily Min Temp < 32 Daily Max Temp > 90 Daily Max Temp > 100 Daily Rain > 0.01 Daily Rain > 0.1
Jan 2018 31 56.5 36.2 69.7 27.7 - - 5.62 2 8 0 0 13 9
Feb 2018 28 62.4 29.1 78.7 20.6 - - 0.9 13 19 0 0 3 2
Mar 2018 31 60.7 34 83.7 24.1 - - 5.7 3 11 0 0 16 13
Apr 2018 30 69 39.5 84.5 30.2 15.1 20.4 4.78 0 1 0 0 8 5
May 2018 31 77.9 45.3 92.1 35.3 14.7 25.2 0.26 0 0 1 0 2 1
Jun 2018 30 86.3 47.6 97.4 37.7 14.3 20.5 0 0 0 11 0 0 0
Jul 2018 31 95.2 53.2 103.1 46.2 13.1 18.5 0 0 0 24 4 0 0
Aug 2018 31 90.9 50.3 97.2 46.6 13.3 18.7 0 0 0 18 0 0 0
Sep 2018 30 86.7 44.5 96.2 39.5 13 18.8 0 0 0 12 0 0 0
Oct 2018 31 77.7 40.7 85.6 31.9 11.6 20.7 1.25 0 1 0 0 4 3
Nov 2018 30 66.4 32.5 82.4 20.4 10 18.6 5.43 13 15 0 0 7 7
Dec 2018 31 55.2 33.6 63.7 26.1 13 27.1 3.34 4 14 0 0 12 7
Total 365 - - - - - - 27.28 35 69 66 4 65 47
Average 30.4 73.8 40.6 73.8 40.6 13 - 2.27 2.9 5.8 5.5 0.3 5.4 3.9
Maximum 31 95.2 53.2 103.1 - - 27.1 5.7 13 19 24 4 16 13
Minimum 28 55.2 29.1 - 20.4 - - 0 0 0 0 0 0 0

Climate Summary 2017

Upper Lake

1/1/2017 - 12/31/2017 | Showing 1/1/17 - 12/31/17
as of 5/17/22 8:40 PM PDT
Temperature (°F) Max Wind Gust (mph) Precip (in) Days
Month Days Avg High Avg Low Max Min Avg Max Total Daily Min Temp < 28 Daily Min Temp < 32 Daily Max Temp > 90 Daily Max Temp > 100 Daily Rain > 0.01 Daily Rain > 0.1
Jan 2017 31 51.8 32.4 63.8 20.8 - - 16.02 10 17 0 0 16 14
Feb 2017 27 55.9 37.8 69.2 24.2 - - 10.98 4 8 0 0 16 14
Mar 2017 31 64.5 38.3 80.1 26.3 - - 3.42 2 3 0 0 10 8
Apr 2017 30 65.8 40.3 83.8 31.1 - - 4.03 0 2 0 0 12 7
May 2017 31 80.5 45 96.1 36.6 - - 0 0 0 5 0 0 0
Jun 2017 30 87.6 51.4 104.7 39.8 - - 0.21 0 0 12 6 1 1
Jul 2017 31 94.1 52.3 99.3 47.3 - - 0 0 0 28 0 0 0
Aug 2017 31 95 54.2 103.7 47.6 - - 0 0 0 29 4 0 0
Sep 2017 30 85.6 48.4 104.2 33.9 - - 0.01 0 0 8 3 0 0
Oct 2017 31 79.2 36.3 90.6 27.2 - - 0.37 1 5 1 0 1 1
Nov 2017 30 59.3 38.3 70.8 25.9 - - 5.32 2 7 0 0 13 8
Dec 2017 31 60.1 27.5 71.2 21.7 - - 0.13 19 30 0 0 2 0
Total 364 - - - - - - 40.49 38 72 83 13 71 53
Average 30.3 73.5 41.9 73.5 41.9 - - 3.37 3.2 6 6.9 1.1 5.9 4.4
Maximum 31 95 54.2 104.7 - - - 16.02 19 30 29 6 16 14
Minimum 27 51.8 27.5 - 20.8 - - 0 0 0 0 0 0 0

Climate Summary 2016

Upper Lake

1/1/2016 - 12/31/2016 | Showing 1/1/16 - 12/31/16
as of 5/17/22 8:40 PM PDT
Temperature (°F) Max Wind Gust (mph) Precip (in) Days
Month Days Avg High Avg Low Max Min Avg Max Total Daily Min Temp < 28 Daily Min Temp < 32 Daily Max Temp > 90 Daily Max Temp > 100 Daily Rain > 0.01 Daily Rain > 0.1
Jan 2016 31 52.2 38.2 63.8 20.4 - - 11.01 2 3 0 0 20 19
Feb 2016 29 66 36.2 79.5 29.8 - - 1.62 0 4 0 0 5 4
Mar 2016 31 62.5 38.9 77.5 30.1 - - 8.58 0 2 0 0 16 12
Apr 2016 30 71.2 40.1 85.2 32 - - 1.4 0 0 0 0 6 4
May 2016 31 77.7 45.9 96.8 39.9 - - 0.33 0 0 3 0 4 1
Jun 2016 30 87 48.5 99 42.7 - - 0.47 0 0 13 0 2 1
Jul 2016 31 91.9 50.2 102.3 42.3 - - 0 0 0 18 4 0 0
Aug 2016 31 93.4 49.3 99.5 42.9 - - 0 0 0 26 0 0 0
Sep 2016 30 87.7 44.5 97.4 38.2 - - 0 0 0 12 0 0 0
Oct 2016 31 68.7 43.5 87.2 34.3 - - 6.53 0 0 0 0 14 13
Nov 2016 30 62.6 37.8 76.1 27.3 - - 4.27 3 5 0 0 13 6
Dec 2016 31 53.5 29.6 65.6 19.9 - - 7.22 14 23 0 0 8 7
Total 366 - - - - - - 41.43 19 37 72 4 88 67
Average 30.5 72.9 41.9 72.9 41.9 - - 3.45 1.6 3.1 6 0.3 7.3 5.6
Maximum 31 93.4 50.2 102.3 - - - 11.01 14 23 26 4 20 19
Minimum 29 52.2 29.6 - 19.9 - - 0 0 0 0 0 0 0